Time;durP1;ratioP1;P1;durP2;ratioP2;P2;SDS_P1;SDS_P2;PMS_P1;PMS_P2;Temp;Humidity;BMP_temperature;BMP_pressure;BME280_temperature;BME280_humidity;BME280_pressure;Samples;Min_cycle;Max_cycle;Signal;HPM_P1;HPM_P2
2022/04/03 00:00:16;;;;;;;9.00;8.25;;;3.90;53.20;;;;;;20814;6808;117571;-70
2022/04/03 00:02:42;;;;;;;8.07;7.57;;;3.60;53.80;;;;;;20837;6808;117038;-70
2022/04/03 00:05:08;;;;;;;8.47;7.77;;;3.60;53.80;;;;;;20833;6808;119398;-70
2022/04/03 00:07:33;;;;;;;8.20;7.60;;;3.40;54.40;;;;;;20808;6808;116915;-72
2022/04/03 00:09:59;;;;;;;7.43;6.83;;;3.20;54.90;;;;;;20806;6808;118568;-70
2022/04/03 00:12:24;;;;;;;8.23;7.63;;;3.00;55.40;;;;;;20825;6808;117163;-73
2022/04/03 00:14:50;;;;;;;8.68;7.97;;;2.90;55.90;;;;;;20832;6808;117030;-69
2022/04/03 00:17:15;;;;;;;8.93;8.17;;;2.80;56.30;;;;;;20831;6808;118328;-69
2022/04/03 00:19:41;;;;;;;11.20;10.40;;;2.70;56.60;;;;;;20624;6808;295675;-71
2022/04/03 00:22:07;;;;;;;9.52;8.80;;;2.90;56.20;;;;;;20811;6808;118532;-70
2022/04/03 00:24:32;;;;;;;11.27;10.48;;;3.00;55.80;;;;;;20620;6808;307764;-70
2022/04/03 00:26:58;;;;;;;11.18;10.48;;;3.20;55.70;;;;;;20615;6808;336628;-71
2022/04/03 00:29:23;;;;;;;11.80;11.00;;;3.50;54.80;;;;;;20622;6808;292440;-69
2022/04/03 00:31:49;;;;;;;9.50;8.77;;;3.80;53.90;;;;;;20835;6808;117295;-69
2022/04/03 00:34:14;;;;;;;8.85;8.25;;;3.70;53.90;;;;;;20812;6808;120681;-72
2022/04/03 00:36:40;;;;;;;10.90;10.10;;;3.50;54.60;;;;;;20625;6808;303705;-69
2022/04/03 00:39:05;;;;;;;9.63;8.93;;;3.50;54.40;;;;;;20837;6808;117325;-70
2022/04/03 00:41:31;;;;;;;11.43;10.50;;;3.50;54.40;;;;;;20631;6808;277689;-72
2022/04/03 00:43:57;;;;;;;11.43;10.53;;;3.60;54.10;;;;;;20608;6808;277590;-69
2022/04/03 00:46:22;;;;;;;11.93;11.10;;;3.80;53.80;;;;;;20621;6808;311346;-69
2022/04/03 00:48:48;;;;;;;10.07;9.27;;;4.10;53.40;;;;;;20831;6808;117373;-70
2022/04/03 00:51:14;;;;;;;9.55;8.75;;;4.00;53.40;;;;;;20830;6808;117175;-71
2022/04/03 00:53:39;;;;;;;11.38;10.48;;;3.70;54.00;;;;;;20616;6808;306543;-69
2022/04/03 00:56:08;;;;;;;11.35;10.55;;;3.70;53.80;;;;;;20600;6808;307567;-69
2022/04/03 00:58:34;;;;;;;12.23;11.33;;;3.90;53.10;;;;;;20624;6807;278246;-73
2022/04/03 01:00:59;;;;;;;12.07;11.18;;;4.20;52.40;;;;;;20615;6808;308185;-70
2022/04/03 01:03:25;;;;;;;12.02;11.12;;;4.40;51.50;;;;;;20627;6808;278923;-69
2022/04/03 01:05:52;;;;;;;9.40;8.80;;;4.40;51.50;;;;;;20836;6808;118832;-70
2022/04/03 01:08:18;;;;;;;11.85;11.05;;;4.20;52.00;;;;;;20599;6808;306917;-69
2022/04/03 01:10:42;;;;;;;9.77;8.87;;;4.10;52.10;;;;;;20834;6808;118367;-72
2022/04/03 01:13:08;;;;;;;8.60;7.93;;;3.90;52.30;;;;;;20835;6808;116878;-70
2022/04/03 01:15:33;;;;;;;10.30;8.67;;;3.70;53.10;;;;;;20822;6808;117258;-69
2022/04/03 01:18:00;;;;;;;9.23;8.52;;;3.20;54.60;;;;;;20820;6808;118196;-72
2022/04/03 01:20:25;;;;;;;9.07;8.27;;;3.20;54.60;;;;;;20831;6808;117591;-71
2022/04/03 01:22:51;;;;;;;11.27;10.48;;;3.10;55.10;;;;;;20624;6808;277723;-72
2022/04/03 01:25:16;;;;;;;11.80;10.90;;;3.30;55.00;;;;;;20620;6808;306674;-71
2022/04/03 01:27:43;;;;;;;11.50;10.70;;;3.90;53.10;;;;;;20624;6808;281338;-72
2022/04/03 01:30:10;;;;;;;11.10;10.30;;;3.90;53.10;;;;;;20605;6808;277645;-70
2022/04/03 01:32:35;;;;;;;12.10;11.10;;;4.30;52.00;;;;;;20618;6808;336146;-70
2022/04/03 01:35:00;;;;;;;11.93;11.03;;;4.30;52.00;;;;;;20630;6808;302131;-70
2022/04/03 01:37:26;;;;;;;11.73;11.03;;;4.50;51.70;;;;;;20633;6808;277612;-70
2022/04/03 01:39:51;;;;;;;11.63;10.83;;;4.50;51.30;;;;;;20630;6808;278473;-76
2022/04/03 01:42:18;;;;;;;10.37;9.50;;;4.40;51.70;;;;;;20816;6808;118176;-73
2022/04/03 01:44:43;;;;;;;11.57;10.67;;;4.40;51.00;;;;;;20628;6808;293268;-70
2022/04/03 01:47:10;;;;;;;11.67;10.80;;;4.40;51.50;;;;;;20622;6808;277199;-69
2022/04/03 01:49:35;;;;;;;9.93;9.23;;;4.40;51.00;;;;;;20829;6808;121188;-69
2022/04/03 01:52:01;;;;;;;12.23;11.23;;;4.20;51.30;;;;;;20598;6808;307994;-73
2022/04/03 01:54:27;;;;;;;9.70;9.05;;;4.20;51.80;;;;;;20833;6808;117495;-70
2022/04/03 01:56:54;;;;;;;12.55;11.55;;;4.00;51.80;;;;;;20617;6808;305286;-69
2022/04/03 01:59:21;;;;;;;12.05;11.15;;;4.00;51.80;;;;;;20608;6808;341984;-69
2022/04/03 02:01:48;;;;;;;10.17;9.37;;;4.00;51.50;;;;;;20827;6808;117598;-69
2022/04/03 02:04:13;;;;;;;12.30;11.50;;;4.00;52.30;;;;;;20566;6808;278410;-69
2022/04/03 02:06:40;;;;;;;12.07;11.07;;;4.00;52.00;;;;;;20591;6808;308008;-71
2022/04/03 02:09:04;;;;;;;12.03;11.03;;;4.20;51.60;;;;;;20605;6808;307837;-70
2022/04/03 02:11:30;;;;;;;12.00;11.20;;;4.40;51.60;;;;;;20610;6807;336536;-70
2022/04/03 02:13:56;;;;;;;10.23;9.27;;;4.60;51.40;;;;;;20818;6808;117668;-71
2022/04/03 02:16:22;;;;;;;12.63;11.73;;;4.40;51.40;;;;;;20603;6808;320350;-73
2022/04/03 02:18:47;;;;;;;9.93;9.23;;;4.30;51.50;;;;;;20825;6808;117211;-70
2022/04/03 02:21:13;;;;;;;12.67;11.57;;;4.20;51.80;;;;;;20610;6808;329174;-70
2022/04/03 02:23:40;;;;;;;10.30;9.33;;;4.10;51.90;;;;;;20838;6808;117257;-70
2022/04/03 02:26:05;;;;;;;10.27;9.43;;;4.00;51.80;;;;;;20813;6808;117613;-69
2022/04/03 02:28:31;;;;;;;12.70;11.63;;;3.80;52.40;;;;;;20617;6808;314539;-69
2022/04/03 02:30:56;;;;;;;10.73;9.73;;;3.80;52.20;;;;;;20840;6808;117807;-70
2022/04/03 02:33:23;;;;;;;12.90;11.93;;;3.80;52.30;;;;;;20624;6808;278165;-69
2022/04/03 02:35:49;;;;;;;14.07;12.97;;;3.80;52.40;;;;;;20618;6808;306714;-72
2022/04/03 02:38:16;;;;;;;13.15;12.15;;;4.10;52.20;;;;;;20598;6808;306838;-69
2022/04/03 02:40:39;;;;;;;11.48;10.45;;;4.30;51.90;;;;;;20822;6808;117946;-69
2022/04/03 02:43:06;;;;;;;10.87;10.07;;;4.20;51.80;;;;;;20829;6808;118339;-72
2022/04/03 02:45:30;;;;;;;11.63;10.30;;;3.90;52.40;;;;;;20828;6808;120123;-73
2022/04/03 02:47:56;;;;;;;13.43;12.32;;;3.60;53.00;;;;;;20617;6808;278434;-72
2022/04/03 02:50:22;;;;;;;13.73;12.73;;;3.70;53.50;;;;;;20463;6808;340083;-70
2022/04/03 02:52:48;;;;;;;11.57;10.47;;;3.90;52.20;;;;;;20823;6808;119598;-69
2022/04/03 02:55:14;;;;;;;10.50;9.50;;;3.90;52.20;;;;;;20820;6808;117246;-70
2022/04/03 02:57:39;;;;;;;11.32;10.32;;;3.70;52.90;;;;;;20825;6808;119165;-69
2022/04/03 03:00:06;;;;;;;11.00;10.00;;;3.50;53.50;;;;;;20814;6808;117282;-70
2022/04/03 03:02:31;;;;;;;13.67;12.57;;;3.40;54.30;;;;;;20616;6808;277923;-69
2022/04/03 03:04:56;;;;;;;14.97;13.77;;;3.50;54.60;;;;;;20615;6808;311139;-69
2022/04/03 03:07:22;;;;;;;14.83;13.53;;;3.80;53.50;;;;;;20625;6808;305134;-70
2022/04/03 03:09:47;;;;;;;14.73;13.63;;;4.10;52.30;;;;;;20630;6808;295006;-73
2022/04/03 03:12:13;;;;;;;12.67;11.47;;;4.40;51.70;;;;;;20812;6808;118298;-69
2022/04/03 03:14:38;;;;;;;12.17;11.07;;;4.20;51.60;;;;;;20839;6808;117973;-69
2022/04/03 03:17:04;;;;;;;11.68;10.57;;;3.90;52.20;;;;;;20836;6808;117305;-72
2022/04/03 03:19:30;;;;;;;12.60;11.60;;;3.70;53.10;;;;;;20829;6808;118380;-69
2022/04/03 03:21:56;;;;;;;14.17;13.17;;;3.50;53.80;;;;;;20617;6807;312248;-71
2022/04/03 03:24:21;;;;;;;12.73;11.63;;;3.50;53.80;;;;;;20844;6808;117453;-69
2022/04/03 03:26:48;;;;;;;12.07;11.07;;;3.40;54.10;;;;;;20853;6808;117261;-69
2022/04/03 03:29:13;;;;;;;11.90;10.90;;;3.40;54.10;;;;;;20836;6808;121286;-70
2022/04/03 03:31:39;;;;;;;15.85;14.52;;;3.30;54.70;;;;;;20616;6808;307857;-69
2022/04/03 03:34:05;;;;;;;12.97;11.83;;;3.50;54.40;;;;;;20812;6808;147533;-69
2022/04/03 03:36:31;;;;;;;15.87;14.67;;;3.50;54.20;;;;;;20619;6808;310679;-71
2022/04/03 03:38:56;;;;;;;15.67;14.47;;;3.60;54.10;;;;;;20621;6808;300185;-69
2022/04/03 03:41:22;;;;;;;16.40;15.07;;;3.90;53.50;;;;;;20628;6808;311771;-72
2022/04/03 03:43:48;;;;;;;16.73;15.27;;;4.20;52.60;;;;;;20631;6808;308953;-69
2022/04/03 03:46:13;;;;;;;16.37;14.98;;;4.40;51.90;;;;;;20610;6808;311021;-71
2022/04/03 03:48:38;;;;;;;13.87;12.67;;;4.60;51.60;;;;;;20832;6808;117429;-69
2022/04/03 03:51:05;;;;;;;16.10;14.85;;;4.40;52.20;;;;;;20617;6808;312666;-69
2022/04/03 03:53:30;;;;;;;15.90;14.70;;;4.30;52.10;;;;;;20618;6808;306756;-69
2022/04/03 03:55:56;;;;;;;16.10;14.80;;;4.50;51.40;;;;;;20602;6808;278378;-70
2022/04/03 03:58:22;;;;;;;13.25;12.25;;;4.40;51.80;;;;;;20834;6808;117365;-70
2022/04/03 04:00:48;;;;;;;13.13;12.13;;;4.40;50.90;;;;;;20832;6808;118511;-72
2022/04/03 04:03:13;;;;;;;15.40;14.13;;;4.10;51.80;;;;;;20622;6808;307128;-70
2022/04/03 04:05:40;;;;;;;15.70;14.40;;;4.00;52.20;;;;;;20627;6808;277106;-69
2022/04/03 04:08:04;;;;;;;16.07;14.83;;;4.30;52.20;;;;;;20602;6808;306683;-70
2022/04/03 04:10:30;;;;;;;16.00;14.80;;;4.50;51.40;;;;;;20629;6808;285350;-71
2022/04/03 04:12:56;;;;;;;15.20;13.90;;;4.60;50.90;;;;;;20619;6808;312117;-69
2022/04/03 04:15:22;;;;;;;15.27;14.07;;;4.70;50.30;;;;;;20612;6808;306713;-69
2022/04/03 04:17:47;;;;;;;14.63;13.43;;;4.70;50.30;;;;;;20615;6808;307106;-69
2022/04/03 04:20:13;;;;;;;15.73;14.53;;;4.80;49.90;;;;;;20596;6808;312087;-71
2022/04/03 04:22:39;;;;;;;16.10;14.73;;;4.70;49.70;;;;;;20615;6808;310929;-72
2022/04/03 04:25:05;;;;;;;12.77;11.75;;;4.70;49.80;;;;;;20830;6808;117352;-69
2022/04/03 04:27:30;;;;;;;15.50;14.30;;;4.50;50.40;;;;;;20616;6808;298179;-70
2022/04/03 04:29:56;;;;;;;16.85;15.52;;;4.30;50.70;;;;;;20618;6808;277992;-70
2022/04/03 04:32:21;;;;;;;13.57;12.43;;;4.40;50.90;;;;;;20821;6808;117440;-72
2022/04/03 04:34:50;;;;;;;13.00;11.80;;;4.20;51.10;;;;;;20847;6807;118391;-70
2022/04/03 04:37:16;;;;;;;26.53;23.77;;;3.80;52.50;;;;;;20587;6808;277660;-71
2022/04/03 04:39:42;;;;;;;17.35;15.93;;;3.80;52.40;;;;;;20607;6808;339547;-69
2022/04/03 04:42:08;;;;;;;14.00;12.60;;;4.00;52.20;;;;;;20768;6808;117353;-72
2022/04/03 04:44:33;;;;;;;13.15;11.70;;;3.90;52.30;;;;;;20832;6808;117930;-71
2022/04/03 04:46:59;;;;;;;12.85;11.85;;;3.60;53.00;;;;;;20828;6808;117105;-69
2022/04/03 04:49:25;;;;;;;13.95;12.77;;;3.40;53.70;;;;;;20836;6808;117664;-70
2022/04/03 04:51:50;;;;;;;17.17;15.68;;;3.20;54.90;;;;;;20619;6808;336757;-72
2022/04/03 04:54:16;;;;;;;17.98;16.48;;;3.70;53.80;;;;;;20605;6808;431905;-71
2022/04/03 04:56:42;;;;;;;14.90;13.43;;;3.70;53.80;;;;;;20847;6808;117450;-69
2022/04/03 04:59:07;;;;;;;18.17;16.67;;;3.60;53.40;;;;;;20617;6808;307539;-69
2022/04/03 05:01:33;;;;;;;17.85;16.45;;;3.70;53.40;;;;;;20618;6808;282487;-71
2022/04/03 05:03:58;;;;;;;17.37;15.97;;;3.90;53.60;;;;;;20602;6808;306885;-72
2022/04/03 05:06:26;;;;;;;17.35;15.95;;;4.10;52.30;;;;;;20619;6808;277807;-70
2022/04/03 05:08:50;;;;;;;14.37;13.20;;;4.30;51.70;;;;;;20831;6808;117733;-74
2022/04/03 05:11:16;;;;;;;17.83;16.33;;;4.00;52.40;;;;;;20611;6808;308438;-71
2022/04/03 05:13:42;;;;;;;18.67;17.07;;;4.00;52.40;;;;;;20618;6808;307885;-71
2022/04/03 05:16:07;;;;;;;17.37;15.97;;;4.20;52.20;;;;;;20593;6808;308536;-70
2022/04/03 05:18:32;;;;;;;15.55;14.15;;;4.40;51.60;;;;;;20826;6808;117550;-71
2022/04/03 05:20:58;;;;;;;18.00;16.42;;;4.20;51.70;;;;;;20607;6808;306271;-70
2022/04/03 05:23:24;;;;;;;14.67;13.37;;;4.10;52.10;;;;;;20828;6808;117655;-71
2022/04/03 05:25:49;;;;;;;17.37;15.87;;;4.00;52.30;;;;;;20615;6808;336636;-72
2022/04/03 05:28:15;;;;;;;17.95;16.37;;;4.00;52.50;;;;;;20594;6808;307517;-71
2022/04/03 05:30:41;;;;;;;15.15;13.68;;;4.00;51.70;;;;;;20826;6808;117419;-70
2022/04/03 05:33:07;;;;;;;13.70;12.53;;;4.00;51.70;;;;;;20832;6808;117574;-70
2022/04/03 05:35:33;;;;;;;12.77;11.70;;;3.50;53.20;;;;;;20845;6808;117750;-70
2022/04/03 05:37:58;;;;;;;17.10;15.70;;;3.40;53.10;;;;;;20610;6808;307093;-70
2022/04/03 05:40:24;;;;;;;18.20;16.50;;;3.50;53.10;;;;;;20617;6808;307448;-71
2022/04/03 05:42:51;;;;;;;14.63;13.40;;;3.80;52.70;;;;;;20832;6808;117282;-70
2022/04/03 05:45:17;;;;;;;17.42;15.82;;;3.70;52.70;;;;;;20622;6807;307970;-71
2022/04/03 05:47:42;;;;;;;17.53;16.13;;;3.70;52.60;;;;;;20622;6808;302836;-70
2022/04/03 05:50:08;;;;;;;17.62;16.10;;;4.10;51.80;;;;;;20597;6808;311026;-70
2022/04/03 05:52:41;;;;;;;17.87;16.50;;;4.10;51.80;;;;;;20613;6808;310551;-71
2022/04/03 05:55:08;;;;;;;17.07;15.77;;;4.30;51.70;;;;;;20612;6808;311677;-69
2022/04/03 05:57:32;;;;;;;14.67;13.33;;;4.40;51.10;;;;;;20808;6808;118004;-70
2022/04/03 06:00:01;;;;;;;16.92;15.63;;;4.10;51.30;;;;;;20591;6808;307028;-70
2022/04/03 06:02:27;;;;;;;14.17;12.97;;;4.10;51.30;;;;;;20681;6810;118234;-71
2022/04/03 06:04:52;;;;;;;17.52;16.02;;;4.00;51.70;;;;;;20603;6810;307013;-71
2022/04/03 06:07:18;;;;;;;16.48;15.18;;;4.00;52.00;;;;;;20603;6810;307710;-71
2022/04/03 06:09:44;;;;;;;13.20;12.10;;;4.20;51.60;;;;;;20769;6824;117596;-73
2022/04/03 06:12:09;;;;;;;16.57;15.17;;;4.00;51.70;;;;;;20539;6824;312365;-72
2022/04/03 06:14:35;;;;;;;13.40;12.20;;;4.00;51.80;;;;;;20764;6827;118677;-70
2022/04/03 06:17:00;;;;;;;15.60;14.40;;;3.90;51.90;;;;;;20569;6820;306752;-71
2022/04/03 06:19:26;;;;;;;13.07;11.97;;;4.00;52.20;;;;;;20777;6824;117240;-71
2022/04/03 06:21:53;;;;;;;16.33;14.93;;;3.90;52.10;;;;;;20616;6809;278440;-72
2022/04/03 06:24:19;;;;;;;15.70;14.40;;;4.10;52.00;;;;;;20596;6809;306751;-72
2022/04/03 06:26:45;;;;;;;16.12;14.82;;;4.10;52.00;;;;;;20606;6809;317658;-77
2022/04/03 06:29:10;;;;;;;15.07;13.98;;;4.30;51.80;;;;;;20611;6809;277674;-72
2022/04/03 06:31:36;;;;;;;13.18;11.77;;;4.50;51.10;;;;;;20830;6809;120791;-74
2022/04/03 06:34:02;;;;;;;12.15;11.00;;;3.90;51.90;;;;;;20784;6809;122051;-71
2022/04/03 06:36:28;;;;;;;15.70;14.40;;;3.90;51.80;;;;;;20601;6809;307451;-74
2022/04/03 06:38:54;;;;;;;15.50;14.40;;;3.90;52.40;;;;;;20609;6809;336613;-73
2022/04/03 06:41:19;;;;;;;13.93;12.00;;;4.20;52.10;;;;;;20806;6809;117021;-72
2022/04/03 06:43:44;;;;;;;14.98;13.77;;;4.10;52.00;;;;;;20587;6809;306672;-69
2022/04/03 06:46:10;;;;;;;13.20;12.07;;;4.10;51.50;;;;;;20768;6809;117521;-70
2022/04/03 06:48:35;;;;;;;15.73;14.32;;;4.00;51.70;;;;;;20577;6809;306744;-73
2022/04/03 06:51:01;;;;;;;12.20;11.20;;;4.00;51.60;;;;;;20804;6809;118127;-73
2022/04/03 06:53:27;;;;;;;12.00;11.00;;;3.90;51.70;;;;;;20811;6809;123678;-72
2022/04/03 06:55:54;;;;;;;12.18;11.18;;;3.60;53.30;;;;;;20817;6808;117559;-69
2022/04/03 06:58:21;;;;;;;14.45;13.35;;;3.80;53.20;;;;;;20586;6808;310597;-69
2022/04/03 07:00:46;;;;;;;14.63;13.47;;;3.70;53.10;;;;;;20611;6809;277977;-69
2022/04/03 07:03:13;;;;;;;13.90;12.73;;;4.40;51.90;;;;;;20604;6809;307500;-70
2022/04/03 07:05:39;;;;;;;14.48;13.35;;;4.40;51.20;;;;;;20599;6809;336662;-70
2022/04/03 07:08:06;;;;;;;12.10;11.18;;;4.60;50.80;;;;;;20803;6809;117741;-74
2022/04/03 07:10:31;;;;;;;11.80;10.80;;;4.60;50.80;;;;;;20824;6809;121724;-71
2022/04/03 07:12:59;;;;;;;11.38;10.38;;;4.40;51.50;;;;;;20828;6809;116165;-73
2022/04/03 07:15:22;;;;;;;13.33;12.30;;;4.20;52.10;;;;;;20603;6809;341419;-70
2022/04/03 07:17:48;;;;;;;11.10;10.20;;;4.30;52.00;;;;;;20821;6809;119793;-70
2022/04/03 07:20:13;;;;;;;10.65;9.70;;;4.50;52.20;;;;;;20810;6809;120811;-70
2022/04/03 07:22:39;;;;;;;12.18;11.27;;;4.40;52.50;;;;;;20605;6809;311199;-73
2022/04/03 07:25:04;;;;;;;10.05;9.35;;;4.60;51.20;;;;;;20815;6809;117224;-71
2022/04/03 07:27:30;;;;;;;12.20;11.30;;;4.60;51.00;;;;;;20621;6809;311419;-74
2022/04/03 07:29:56;;;;;;;13.47;12.40;;;4.70;49.90;;;;;;20834;6809;117260;-69
2022/04/03 07:32:21;;;;;;;14.80;13.60;;;4.70;50.40;;;;;;20597;6809;311280;-72
2022/04/03 07:34:47;;;;;;;16.87;15.47;;;4.90;49.80;;;;;;20827;6809;117335;-71
2022/04/03 07:37:12;;;;;;;14.00;12.97;;;4.90;50.10;;;;;;20604;6809;340704;-70
2022/04/03 07:39:38;;;;;;;15.10;13.90;;;5.00;49.50;;;;;;20600;6809;307836;-74
2022/04/03 07:42:04;;;;;;;10.23;9.33;;;5.40;48.50;;;;;;20783;6809;117579;-73
2022/04/03 07:44:29;;;;;;;11.93;11.03;;;5.40;48.70;;;;;;20817;6809;117695;-69
2022/04/03 07:46:55;;;;;;;10.23;9.38;;;5.30;49.40;;;;;;20821;6809;117094;-74
2022/04/03 07:49:20;;;;;;;13.57;12.55;;;5.20;50.00;;;;;;20600;6809;336125;-74
2022/04/03 07:51:46;;;;;;;10.30;9.50;;;5.40;48.60;;;;;;20830;6809;118657;-73
2022/04/03 07:54:12;;;;;;;8.50;7.95;;;5.40;49.70;;;;;;20792;6809;121136;-72
2022/04/03 07:56:38;;;;;;;8.43;7.83;;;5.40;49.70;;;;;;20803;6809;117940;-73
2022/04/03 07:59:05;;;;;;;10.13;9.43;;;5.40;50.40;;;;;;20607;6809;277272;-73
2022/04/03 08:01:29;;;;;;;11.40;10.50;;;5.70;49.10;;;;;;20810;6809;118133;-76
2022/04/03 08:03:54;;;;;;;19.60;17.62;;;6.00;49.60;;;;;;20610;6809;277645;-74
2022/04/03 08:06:20;;;;;;;9.50;8.80;;;6.20;46.60;;;;;;20814;6809;117494;-72
2022/04/03 08:08:46;;;;;;;9.90;9.10;;;6.20;46.90;;;;;;20830;6807;116618;-71
2022/04/03 08:11:11;;;;;;;17.42;16.20;;;6.00;47.10;;;;;;20832;6809;116765;-72
2022/04/03 08:13:40;;;;;;;10.52;9.82;;;5.70;48.00;;;;;;20625;6809;282042;-71
2022/04/03 08:16:05;;;;;;;9.53;8.73;;;5.80;46.10;;;;;;20607;6809;277625;-71
2022/04/03 08:18:31;;;;;;;10.57;9.90;;;6.10;45.90;;;;;;20619;6809;311206;-73
2022/04/03 08:20:57;;;;;;;9.30;8.50;;;6.40;44.20;;;;;;20615;6809;281708;-72
2022/04/03 08:23:24;;;;;;;8.90;8.40;;;6.60;43.60;;;;;;20607;6809;310610;-71
2022/04/03 08:25:49;;;;;;;9.45;8.85;;;6.80;42.80;;;;;;20604;6809;280891;-70
2022/04/03 08:28:17;;;;;;;9.05;8.43;;;6.70;43.60;;;;;;20799;6809;117037;-70
2022/04/03 08:30:41;;;;;;;16.60;15.30;;;6.70;43.60;;;;;;20807;6809;117115;-70
2022/04/03 08:33:09;;;;;;;9.97;9.37;;;6.40;44.90;;;;;;20595;6809;307540;-71
2022/04/03 08:35:32;;;;;;;7.03;6.60;;;6.50;45.20;;;;;;20823;6809;116809;-73
2022/04/03 08:37:58;;;;;;;18.08;16.70;;;6.70;46.10;;;;;;20590;6809;330741;-71
2022/04/03 08:40:24;;;;;;;13.40;12.45;;;6.90;42.60;;;;;;20805;6809;117366;-70
2022/04/03 08:42:49;;;;;;;8.93;8.43;;;7.10;44.00;;;;;;20601;6809;336641;-73
2022/04/03 08:45:15;;;;;;;14.80;13.85;;;7.40;43.00;;;;;;20604;6809;306864;-70
2022/04/03 08:47:44;;;;;;;10.30;9.60;;;7.60;41.90;;;;;;20605;6809;311205;-70
2022/04/03 08:50:10;;;;;;;7.20;6.70;;;7.90;42.40;;;;;;20794;6809;117639;-73
2022/04/03 08:52:34;;;;;;;7.07;6.57;;;7.90;43.90;;;;;;20815;6809;117636;-70
2022/04/03 08:55:00;;;;;;;6.07;5.67;;;7.70;44.50;;;;;;20604;6809;307388;-70
2022/04/03 08:57:26;;;;;;;6.20;5.80;;;7.70;41.40;;;;;;20801;6809;119040;-71
2022/04/03 08:59:54;;;;;;;7.60;7.03;;;7.50;42.50;;;;;;20611;6809;306534;-70
2022/04/03 09:02:17;;;;;;;8.18;7.53;;;7.50;40.90;;;;;;20564;6809;436899;-71
2022/04/03 09:04:42;;;;;;;9.70;8.90;;;7.60;39.40;;;;;;20605;6809;311955;-72
2022/04/03 09:07:08;;;;;;;7.50;7.00;;;7.70;39.90;;;;;;20610;6809;277976;-79
2022/04/03 09:09:33;;;;;;;8.17;7.53;;;7.70;38.70;;;;;;20579;6809;309070;-72
2022/04/03 09:12:09;;;;;;;5.97;5.57;;;7.80;40.30;;;;;;20811;6809;116997;-73
2022/04/03 09:14:35;;;;;;;7.97;7.40;;;7.50;41.00;;;;;;20610;6809;277519;-71
2022/04/03 09:17:00;;;;;;;9.07;8.27;;;7.30;39.40;;;;;;20618;6809;277445;-74
2022/04/03 09:19:33;;;;;;;8.50;7.90;;;7.30;39.50;;;;;;20609;6807;298871;-72
2022/04/03 09:22:01;;;;;;;8.30;7.70;;;7.00;40.90;;;;;;20805;6808;118385;-75
2022/04/03 09:24:26;;;;;;;9.02;8.43;;;7.00;40.90;;;;;;20605;6809;336577;-74
2022/04/03 09:26:58;;;;;;;7.85;7.30;;;6.80;42.70;;;;;;20611;6809;306585;-73
2022/04/03 09:29:23;;;;;;;7.70;7.30;;;6.90;41.20;;;;;;20600;6809;278527;-72
2022/04/03 09:31:49;;;;;;;8.10;7.50;;;6.90;40.40;;;;;;20813;6809;117294;-73
2022/04/03 09:34:15;;;;;;;11.73;10.73;;;6.60;41.60;;;;;;20767;6809;121805;-78
2022/04/03 09:36:40;;;;;;;9.52;8.93;;;6.10;42.40;;;;;;20606;6809;282023;-80
2022/04/03 09:39:16;;;;;;;12.60;11.73;;;5.90;42.50;;;;;;20604;6809;309190;-71
2022/04/03 09:42:06;;;;;;;7.77;7.23;;;5.80;43.60;;;;;;20793;6809;117142;-74
2022/04/03 09:44:31;;;;;;;29.80;27.00;;;5.70;43.50;;;;;;20599;6809;307006;-69
2022/04/03 09:47:17;;;;;;;40.93;36.73;;;5.70;44.00;;;;;;20822;6809;117753;-73
2022/04/03 09:49:42;;;;;;;7.83;7.33;;;5.50;44.50;;;;;;20816;6809;118395;-73
2022/04/03 09:52:09;;;;;;;8.20;7.57;;;5.20;45.30;;;;;;20790;6809;116867;-78
2022/04/03 09:54:34;;;;;;;23.95;21.95;;;5.00;45.90;;;;;;20608;6809;307375;-72
2022/04/03 09:57:20;;;;;;;7.90;7.40;;;5.10;47.00;;;;;;20831;6809;118121;-70
2022/04/03 09:59:48;;;;;;;11.53;10.70;;;5.10;47.00;;;;;;20616;6809;306666;-71
2022/04/03 10:02:14;;;;;;;9.43;8.73;;;5.40;48.10;;;;;;20601;6809;283705;-72
2022/04/03 10:04:39;;;;;;;14.23;13.15;;;5.90;46.90;;;;;;20824;6809;117831;-71
2022/04/03 10:10:30;;;;;;;31.27;28.27;;;6.10;47.80;;;;;;20591;6809;299873;-69
2022/04/03 10:12:56;;;;;;;8.07;7.57;;;6.30;43.90;;;;;;20816;6809;117822;-74
2022/04/03 10:15:22;;;;;;;7.00;6.50;;;6.30;44.70;;;;;;20602;6809;331512;-70
2022/04/03 10:17:47;;;;;;;9.00;8.40;;;6.30;43.50;;;;;;20608;6809;310697;-73
2022/04/03 10:20:14;;;;;;;8.68;8.10;;;6.50;42.70;;;;;;20803;6809;118109;-68
2022/04/03 10:22:39;;;;;;;7.90;7.23;;;6.40;43.50;;;;;;20830;6809;117147;-72
2022/04/03 10:25:04;;;;;;;8.07;7.47;;;6.10;44.30;;;;;;20614;6809;279386;-70
2022/04/03 10:27:30;;;;;;;8.70;7.90;;;6.10;44.90;;;;;;20805;6809;118533;-71
2022/04/03 10:29:56;;;;;;;6.93;6.43;;;6.20;45.00;;;;;;20803;6809;122736;-70
2022/04/03 10:32:27;;;;;;;6.82;6.43;;;6.00;45.50;;;;;;20568;6812;284126;-72
2022/04/03 10:34:51;;;;;;;8.30;7.73;;;6.10;43.50;;;;;;20561;6812;282120;-70
2022/04/03 10:37:30;;;;;;;8.80;8.00;;;6.50;44.40;;;;;;20763;6827;117061;-69
2022/04/03 10:40:06;;;;;;;7.22;6.82;;;6.50;44.40;;;;;;20540;6827;314095;-76
2022/04/03 10:42:32;;;;;;;6.35;5.95;;;6.80;41.00;;;;;;20521;6827;324552;-70
2022/04/03 10:45:11;;;;;;;7.50;6.90;;;6.80;41.00;;;;;;20549;6827;312743;-70
2022/04/03 10:47:39;;;;;;;10.50;9.33;;;6.80;42.60;;;;;;20809;6814;118119;-73
2022/04/03 10:50:05;;;;;;;6.73;6.23;;;6.40;43.40;;;;;;20808;6806;117626;-73
2022/04/03 10:52:40;;;;;;;6.10;5.70;;;6.40;43.40;;;;;;20822;6806;118777;-71
2022/04/03 10:55:20;;;;;;;7.80;7.30;;;6.10;42.80;;;;;;20524;6827;312454;-75
2022/04/03 10:57:49;;;;;;;6.50;6.10;;;6.10;42.90;;;;;;20784;6812;117019;-73
2022/04/03 11:00:14;;;;;;;6.53;6.13;;;6.00;44.00;;;;;;20759;6815;121462;-73
2022/04/03 11:02:44;;;;;;;5.93;5.50;;;5.60;45.50;;;;;;20784;6817;117257;-71
2022/04/03 11:05:29;;;;;;;7.22;6.62;;;5.60;45.50;;;;;;20550;6822;335895;-72
2022/04/03 11:08:02;;;;;;;8.30;7.60;;;5.70;45.10;;;;;;20564;6822;307020;-71
2022/04/03 11:10:59;;;;;;;10.33;9.63;;;6.00;43.50;;;;;;20798;6817;117562;-68
2022/04/03 11:13:31;;;;;;;7.32;6.87;;;5.70;43.60;;;;;;20601;6803;307569;-69
2022/04/03 11:16:00;;;;;;;10.00;9.00;;;5.70;44.00;;;;;;20814;6818;118223;-68
2022/04/03 11:18:32;;;;;;;9.10;8.30;;;5.40;44.50;;;;;;20812;6817;117737;-71
2022/04/03 11:21:20;;;;;;;11.68;10.73;;;5.10;45.10;;;;;;20626;6803;311546;-72
2022/04/03 11:23:55;;;;;;;8.27;7.67;;;5.00;45.80;;;;;;20845;6803;119075;-77
2022/04/03 11:26:21;;;;;;;9.98;9.27;;;4.80;46.40;;;;;;20602;6803;336590;-74
2022/04/03 11:28:46;;;;;;;8.23;7.63;;;4.90;46.50;;;;;;20803;6803;117059;-74
2022/04/03 11:31:12;;;;;;;7.47;6.80;;;4.80;46.70;;;;;;20843;6803;117481;-71
2022/04/03 11:33:37;;;;;;;8.70;8.00;;;4.60;47.30;;;;;;20631;6803;336107;-71
2022/04/03 11:36:04;;;;;;;7.70;7.20;;;4.80;48.00;;;;;;20820;6803;118387;-73
2022/04/03 11:38:39;;;;;;;7.90;7.40;;;4.80;48.00;;;;;;20618;6803;278332;-72
2022/04/03 11:41:05;;;;;;;7.93;7.30;;;4.90;48.00;;;;;;20851;6803;120819;-75
2022/04/03 11:43:30;;;;;;;8.37;7.77;;;5.00;47.80;;;;;;20627;6801;311232;-72
2022/04/03 11:45:56;;;;;;;6.40;5.97;;;5.20;47.50;;;;;;20854;6802;116854;-72
2022/04/03 11:48:22;;;;;;;7.53;7.03;;;5.20;47.80;;;;;;20602;6802;279511;-73
2022/04/03 11:50:52;;;;;;;7.12;6.72;;;5.80;47.50;;;;;;20622;6802;278449;-70
2022/04/03 11:53:18;;;;;;;7.53;7.03;;;5.70;47.50;;;;;;20578;6802;308788;-70
2022/04/03 11:55:43;;;;;;;5.93;5.50;;;6.10;46.90;;;;;;20837;6802;117404;-73
2022/04/03 11:58:08;;;;;;;12.23;10.93;;;6.10;47.30;;;;;;20784;6802;118749;-73
2022/04/03 12:00:34;;;;;;;3.30;3.10;;;6.00;47.60;;;;;;20844;6802;117514;-71
2022/04/03 12:02:59;;;;;;;3.53;3.33;;;5.90;47.50;;;;;;20834;6802;116987;-75
2022/04/03 12:05:25;;;;;;;4.00;3.30;;;5.70;47.50;;;;;;20774;6802;119367;-72
2022/04/03 12:07:51;;;;;;;4.60;4.30;;;5.80;43.70;;;;;;20549;6802;328416;-71
2022/04/03 12:10:26;;;;;;;4.80;4.50;;;5.80;43.70;;;;;;20537;6802;438268;-71
2022/04/03 12:12:53;;;;;;;4.87;4.57;;;6.20;42.00;;;;;;20814;6802;117245;-73
2022/04/03 12:15:21;;;;;;;4.68;4.37;;;6.30;43.80;;;;;;20786;6802;117773;-73
2022/04/03 12:17:47;;;;;;;5.17;4.77;;;6.20;45.40;;;;;;20774;6802;117013;-74
2022/04/03 12:20:14;;;;;;;4.85;4.50;;;6.40;43.20;;;;;;20534;6802;314878;-74
2022/04/03 12:22:42;;;;;;;4.60;4.30;;;6.30;43.00;;;;;;20852;6803;119341;-73
2022/04/03 12:25:08;;;;;;;6.60;5.70;;;6.50;43.90;;;;;;20633;6803;338292;-74
2022/04/03 12:27:34;;;;;;;5.33;5.03;;;6.70;42.30;;;;;;20842;6803;120088;-74
2022/04/03 12:29:59;;;;;;;5.43;5.13;;;6.70;43.40;;;;;;20823;6803;117415;-74
2022/04/03 12:32:32;;;;;;;5.47;5.07;;;6.70;44.60;;;;;;20842;6803;119501;-75
2022/04/03 12:34:59;;;;;;;6.40;5.90;;;6.60;45.60;;;;;;20625;6803;277841;-78